Startpagina
METAR-TAF:

METAR-TAF

Vliegvelden :

Aéroport de Paris-Beauvais-Tillé

Beauvais, Frankrijk

breedte: 49-28N, lengte: 002-07E, hoogte: 109 m

Actueel weer

Dit bericht is 22 minuten geleden gemaakt, om 04:30 UTC
Wind 4 kt uit het westnoordwesten
Temperatuur -4°C
Vochtigheid 100%
Druk 1026 hPa
Zicht: 9000 m

METAR: LFOB 070430Z AUTO 30004KT 9000 NSC M04/M04 Q1026 NOSIG

Tijdstip: 05:52 (04:52 UTC)

Verwachting

Dit bericht is 5 uur en het 52 minuten geleden gemaakt, om 23:00 UTC
Verwachting geldig van 07 om 00 UTC tot 07 om 24 UTC
Wind 8 kt uit het noordnoordoosten
Zicht 10 km of meer
geen wolken onder 1500 m en geen cumulonimbus

TAF: LFOB 062300Z 0700/0724 02008KT CAVOK

Waarnemingen en weersverwachtingen van meer dan 4000 vliegvelden (METAR en TAF).

De beschikbare stations zijn de gele en rode punten op de kaart.

Ga met uw muis naar het station om de naam te zien.

Klik dan om waarnemingen en weersverwachtingen te zien.

kaart wijzigen: klik op de groene knoppen met een zwart kruis om in te zoomen, op de groene knop met een streepje om uit te zoomen of op de groene pijlen voor aangrenzende kaarten.


METAR-TAF: